sensor_id;sensor_type;location;lat;lon;timestamp;P1;durP1;ratioP1;P2;durP2;ratioP2
79781;SDS011;69262;48.470;7.960;2023-04-24T00:02:03;1.27;;;0.90;;
79781;SDS011;69262;48.470;7.960;2023-04-24T00:05:07;0.77;;;0.77;;
79781;SDS011;69262;48.470;7.960;2023-04-24T00:08:07;0.80;;;0.80;;
79781;SDS011;69262;48.470;7.960;2023-04-24T00:11:08;4.43;;;1.10;;
79781;SDS011;69262;48.470;7.960;2023-04-24T00:14:09;1.17;;;0.70;;
79781;SDS011;69262;48.470;7.960;2023-04-24T00:17:10;0.70;;;0.70;;
79781;SDS011;69262;48.470;7.960;2023-04-24T00:20:10;1.10;;;0.85;;
79781;SDS011;69262;48.470;7.960;2023-04-24T00:23:11;0.90;;;0.70;;
79781;SDS011;69262;48.470;7.960;2023-04-24T00:26:11;0.73;;;0.73;;
79781;SDS011;69262;48.470;7.960;2023-04-24T00:29:11;0.80;;;0.80;;
79781;SDS011;69262;48.470;7.960;2023-04-24T00:32:12;0.80;;;0.80;;
79781;SDS011;69262;48.470;7.960;2023-04-24T00:35:13;0.75;;;0.75;;
79781;SDS011;69262;48.470;7.960;2023-04-24T00:38:14;0.80;;;0.80;;
79781;SDS011;69262;48.470;7.960;2023-04-24T00:41:16;0.70;;;0.70;;
79781;SDS011;69262;48.470;7.960;2023-04-24T00:44:16;0.90;;;0.80;;
79781;SDS011;69262;48.470;7.960;2023-04-24T00:47:17;1.95;;;0.70;;
79781;SDS011;69262;48.470;7.960;2023-04-24T00:50:19;1.70;;;0.90;;
79781;SDS011;69262;48.470;7.960;2023-04-24T00:53:21;0.70;;;0.70;;
79781;SDS011;69262;48.470;7.960;2023-04-24T00:56:21;0.73;;;0.73;;
79781;SDS011;69262;48.470;7.960;2023-04-24T00:59:23;1.02;;;0.80;;
79781;SDS011;69262;48.470;7.960;2023-04-24T01:02:23;0.70;;;0.70;;
79781;SDS011;69262;48.470;7.960;2023-04-24T01:05:25;0.70;;;0.70;;
79781;SDS011;69262;48.470;7.960;2023-04-24T01:08:26;0.70;;;0.70;;
79781;SDS011;69262;48.470;7.960;2023-04-24T01:11:28;0.77;;;0.77;;
79781;SDS011;69262;48.470;7.960;2023-04-24T01:14:29;0.80;;;0.70;;
79781;SDS011;69262;48.470;7.960;2023-04-24T01:17:30;0.93;;;0.93;;
79781;SDS011;69262;48.470;7.960;2023-04-24T01:20:31;1.02;;;0.93;;
79781;SDS011;69262;48.470;7.960;2023-04-24T01:23:33;1.58;;;1.00;;
79781;SDS011;69262;48.470;7.960;2023-04-24T01:26:34;0.88;;;0.60;;
79781;SDS011;69262;48.470;7.960;2023-04-24T01:29:34;0.88;;;0.88;;
79781;SDS011;69262;48.470;7.960;2023-04-24T01:32:36;0.60;;;0.60;;
79781;SDS011;69262;48.470;7.960;2023-04-24T01:35:37;0.90;;;0.90;;
79781;SDS011;69262;48.470;7.960;2023-04-24T01:38:37;0.93;;;0.73;;
79781;SDS011;69262;48.470;7.960;2023-04-24T01:41:38;0.70;;;0.70;;
79781;SDS011;69262;48.470;7.960;2023-04-24T01:44:38;0.75;;;0.70;;
79781;SDS011;69262;48.470;7.960;2023-04-24T01:47:39;1.27;;;0.90;;
79781;SDS011;69262;48.470;7.960;2023-04-24T01:50:39;0.70;;;0.70;;
79781;SDS011;69262;48.470;7.960;2023-04-24T01:53:40;0.82;;;0.82;;
79781;SDS011;69262;48.470;7.960;2023-04-24T01:56:41;0.80;;;0.80;;
79781;SDS011;69262;48.470;7.960;2023-04-24T01:59:45;0.77;;;0.75;;
79781;SDS011;69262;48.470;7.960;2023-04-24T02:02:45;2.90;;;0.77;;
79781;SDS011;69262;48.470;7.960;2023-04-24T02:05:46;0.80;;;0.80;;
79781;SDS011;69262;48.470;7.960;2023-04-24T02:08:46;0.68;;;0.68;;
79781;SDS011;69262;48.470;7.960;2023-04-24T02:11:47;0.70;;;0.70;;
79781;SDS011;69262;48.470;7.960;2023-04-24T02:14:47;0.98;;;0.90;;
79781;SDS011;69262;48.470;7.960;2023-04-24T02:17:47;0.88;;;0.88;;
79781;SDS011;69262;48.470;7.960;2023-04-24T02:20:48;0.70;;;0.70;;
79781;SDS011;69262;48.470;7.960;2023-04-24T02:23:48;0.70;;;0.70;;
79781;SDS011;69262;48.470;7.960;2023-04-24T02:26:48;0.60;;;0.60;;
79781;SDS011;69262;48.470;7.960;2023-04-24T02:29:49;1.13;;;0.80;;
79781;SDS011;69262;48.470;7.960;2023-04-24T02:32:49;0.95;;;0.88;;
79781;SDS011;69262;48.470;7.960;2023-04-24T02:35:50;0.63;;;0.60;;
79781;SDS011;69262;48.470;7.960;2023-04-24T02:38:51;0.60;;;0.60;;
79781;SDS011;69262;48.470;7.960;2023-04-24T02:41:51;1.30;;;0.90;;
79781;SDS011;69262;48.470;7.960;2023-04-24T02:44:51;1.10;;;0.70;;
79781;SDS011;69262;48.470;7.960;2023-04-24T02:47:51;0.80;;;0.80;;
79781;SDS011;69262;48.470;7.960;2023-04-24T02:50:52;0.90;;;0.73;;
79781;SDS011;69262;48.470;7.960;2023-04-24T02:53:53;0.63;;;0.63;;
79781;SDS011;69262;48.470;7.960;2023-04-24T02:56:53;1.05;;;0.88;;
79781;SDS011;69262;48.470;7.960;2023-04-24T02:59:53;0.70;;;0.70;;
79781;SDS011;69262;48.470;7.960;2023-04-24T03:02:54;0.63;;;0.63;;
79781;SDS011;69262;48.470;7.960;2023-04-24T03:05:54;0.80;;;0.80;;
79781;SDS011;69262;48.470;7.960;2023-04-24T03:08:56;0.80;;;0.80;;
79781;SDS011;69262;48.470;7.960;2023-04-24T03:11:57;0.98;;;0.80;;
79781;SDS011;69262;48.470;7.960;2023-04-24T03:14:58;1.00;;;0.90;;
79781;SDS011;69262;48.470;7.960;2023-04-24T03:17:59;0.60;;;0.60;;
79781;SDS011;69262;48.470;7.960;2023-04-24T03:21:00;1.27;;;1.17;;
79781;SDS011;69262;48.470;7.960;2023-04-24T03:24:01;0.65;;;0.65;;
79781;SDS011;69262;48.470;7.960;2023-04-24T03:27:02;0.70;;;0.70;;
79781;SDS011;69262;48.470;7.960;2023-04-24T03:30:20;0.70;;;0.68;;
79781;SDS011;69262;48.470;7.960;2023-04-24T03:33:26;0.50;;;0.50;;
79781;SDS011;69262;48.470;7.960;2023-04-24T03:36:34;0.70;;;0.70;;
79781;SDS011;69262;48.470;7.960;2023-04-24T03:39:34;1.13;;;0.80;;
79781;SDS011;69262;48.470;7.960;2023-04-24T03:42:35;0.80;;;0.80;;
79781;SDS011;69262;48.470;7.960;2023-04-24T03:45:35;0.80;;;0.73;;
79781;SDS011;69262;48.470;7.960;2023-04-24T03:48:36;0.70;;;0.60;;
79781;SDS011;69262;48.470;7.960;2023-04-24T03:51:36;1.27;;;0.75;;
79781;SDS011;69262;48.470;7.960;2023-04-24T03:54:50;0.60;;;0.60;;
79781;SDS011;69262;48.470;7.960;2023-04-24T03:57:51;0.85;;;0.85;;
79781;SDS011;69262;48.470;7.960;2023-04-24T04:00:55;1.45;;;0.70;;
79781;SDS011;69262;48.470;7.960;2023-04-24T04:04:19;1.50;;;0.80;;
79781;SDS011;69262;48.470;7.960;2023-04-24T04:07:20;0.85;;;0.75;;
79781;SDS011;69262;48.470;7.960;2023-04-24T04:10:20;0.60;;;0.60;;
79781;SDS011;69262;48.470;7.960;2023-04-24T04:13:21;1.27;;;0.80;;
79781;SDS011;69262;48.470;7.960;2023-04-24T04:16:21;0.65;;;0.65;;
79781;SDS011;69262;48.470;7.960;2023-04-24T04:19:24;0.75;;;0.60;;
79781;SDS011;69262;48.470;7.960;2023-04-24T04:22:25;0.85;;;0.70;;
79781;SDS011;69262;48.470;7.960;2023-04-24T04:25:27;0.73;;;0.73;;
79781;SDS011;69262;48.470;7.960;2023-04-24T04:28:27;0.98;;;0.77;;
79781;SDS011;69262;48.470;7.960;2023-04-24T04:31:28;0.70;;;0.60;;
79781;SDS011;69262;48.470;7.960;2023-04-24T04:34:30;0.85;;;0.73;;
79781;SDS011;69262;48.470;7.960;2023-04-24T04:37:34;0.60;;;0.60;;
79781;SDS011;69262;48.470;7.960;2023-04-24T04:40:53;0.70;;;0.70;;
79781;SDS011;69262;48.470;7.960;2023-04-24T04:43:56;0.70;;;0.70;;
79781;SDS011;69262;48.470;7.960;2023-04-24T04:46:59;0.70;;;0.70;;
79781;SDS011;69262;48.470;7.960;2023-04-24T04:50:03;0.60;;;0.60;;
79781;SDS011;69262;48.470;7.960;2023-04-24T04:53:06;1.60;;;0.80;;
79781;SDS011;69262;48.470;7.960;2023-04-24T04:56:10;0.70;;;0.70;;
79781;SDS011;69262;48.470;7.960;2023-04-24T04:59:14;1.45;;;0.75;;
79781;SDS011;69262;48.470;7.960;2023-04-24T05:02:15;0.70;;;0.60;;
79781;SDS011;69262;48.470;7.960;2023-04-24T05:05:15;0.68;;;0.68;;
79781;SDS011;69262;48.470;7.960;2023-04-24T05:08:17;1.70;;;0.80;;
79781;SDS011;69262;48.470;7.960;2023-04-24T05:11:18;0.70;;;0.70;;
79781;SDS011;69262;48.470;7.960;2023-04-24T05:14:18;2.38;;;0.80;;
79781;SDS011;69262;48.470;7.960;2023-04-24T05:17:19;0.60;;;0.60;;
79781;SDS011;69262;48.470;7.960;2023-04-24T05:20:20;0.70;;;0.70;;
79781;SDS011;69262;48.470;7.960;2023-04-24T05:23:21;0.80;;;0.60;;
79781;SDS011;69262;48.470;7.960;2023-04-24T05:26:26;0.70;;;0.70;;
79781;SDS011;69262;48.470;7.960;2023-04-24T05:29:28;1.38;;;0.95;;
79781;SDS011;69262;48.470;7.960;2023-04-24T05:32:30;3.33;;;0.77;;
79781;SDS011;69262;48.470;7.960;2023-04-24T05:35:31;2.80;;;1.10;;
79781;SDS011;69262;48.470;7.960;2023-04-24T05:38:31;0.73;;;0.70;;
79781;SDS011;69262;48.470;7.960;2023-04-24T05:41:32;0.90;;;0.90;;
79781;SDS011;69262;48.470;7.960;2023-04-24T05:44:32;0.60;;;0.60;;
79781;SDS011;69262;48.470;7.960;2023-04-24T05:47:33;0.60;;;0.60;;
79781;SDS011;69262;48.470;7.960;2023-04-24T05:50:33;0.70;;;0.70;;
79781;SDS011;69262;48.470;7.960;2023-04-24T05:53:34;5.20;;;1.02;;
79781;SDS011;69262;48.470;7.960;2023-04-24T05:56:34;1.15;;;0.90;;
79781;SDS011;69262;48.470;7.960;2023-04-24T05:59:37;1.30;;;1.00;;
79781;SDS011;69262;48.470;7.960;2023-04-24T06:02:41;0.70;;;0.70;;
79781;SDS011;69262;48.470;7.960;2023-04-24T06:05:44;0.60;;;0.60;;
79781;SDS011;69262;48.470;7.960;2023-04-24T06:08:46;1.90;;;0.88;;
79781;SDS011;69262;48.470;7.960;2023-04-24T06:11:47;0.98;;;0.98;;
79781;SDS011;69262;48.470;7.960;2023-04-24T06:14:48;1.70;;;1.08;;
79781;SDS011;69262;48.470;7.960;2023-04-24T06:17:56;1.05;;;0.95;;
79781;SDS011;69262;48.470;7.960;2023-04-24T06:20:56;1.33;;;1.25;;
79781;SDS011;69262;48.470;7.960;2023-04-24T06:23:57;5.68;;;1.80;;
79781;SDS011;69262;48.470;7.960;2023-04-24T06:26:58;2.03;;;1.13;;
79781;SDS011;69262;48.470;7.960;2023-04-24T06:29:59;3.80;;;1.30;;
79781;SDS011;69262;48.470;7.960;2023-04-24T06:33:00;6.82;;;1.60;;
79781;SDS011;69262;48.470;7.960;2023-04-24T06:36:01;4.90;;;1.48;;
79781;SDS011;69262;48.470;7.960;2023-04-24T06:39:01;1.88;;;1.35;;
79781;SDS011;69262;48.470;7.960;2023-04-24T06:42:02;1.38;;;1.27;;
79781;SDS011;69262;48.470;7.960;2023-04-24T06:45:02;1.15;;;1.05;;
79781;SDS011;69262;48.470;7.960;2023-04-24T06:48:03;3.30;;;1.23;;
79781;SDS011;69262;48.470;7.960;2023-04-24T06:51:03;1.85;;;1.60;;
79781;SDS011;69262;48.470;7.960;2023-04-24T06:54:04;7.25;;;1.42;;
79781;SDS011;69262;48.470;7.960;2023-04-24T06:57:04;4.80;;;1.63;;
79781;SDS011;69262;48.470;7.960;2023-04-24T07:00:04;3.00;;;1.20;;
79781;SDS011;69262;48.470;7.960;2023-04-24T07:03:06;1.95;;;1.40;;
79781;SDS011;69262;48.470;7.960;2023-04-24T07:06:07;1.75;;;1.30;;
79781;SDS011;69262;48.470;7.960;2023-04-24T07:09:09;3.35;;;1.33;;
79781;SDS011;69262;48.470;7.960;2023-04-24T07:12:09;3.22;;;1.40;;
79781;SDS011;69262;48.470;7.960;2023-04-24T07:15:13;2.33;;;1.50;;
79781;SDS011;69262;48.470;7.960;2023-04-24T07:18:15;2.17;;;1.45;;
79781;SDS011;69262;48.470;7.960;2023-04-24T07:21:15;1.60;;;1.23;;
79781;SDS011;69262;48.470;7.960;2023-04-24T07:24:15;1.38;;;1.27;;
79781;SDS011;69262;48.470;7.960;2023-04-24T07:27:16;1.63;;;1.40;;
79781;SDS011;69262;48.470;7.960;2023-04-24T07:30:16;2.47;;;1.30;;
79781;SDS011;69262;48.470;7.960;2023-04-24T07:33:17;1.40;;;1.30;;
79781;SDS011;69262;48.470;7.960;2023-04-24T07:36:17;6.72;;;1.70;;
79781;SDS011;69262;48.470;7.960;2023-04-24T07:39:18;3.38;;;1.20;;
